Sweeney Granite Mountains, California Weather observations

Data are for 10 minute period ending at time listed.
 Day   Time   Solar   Ave.   Ave.  Ave.  Vector  Max.   Baro.   Total    
  of    of     Rad.   Air    Rel.  Wind   Wind   Wind  Press.  Precip.   
Year   Day            Temp.  Hum.  Speed  Dir.   Gust                    
2016   (PST)  Kw/m2    F      %     mph   deg.    mph    mb.     in.     
-------------------------------------------------------------------------
 205   11:10   0.98   92.2    13    3.5   168     7.8   871.3    0.00 
 205   11:20   0.99   94.2    13    3.2   120    10.1   871.2    0.00 
 205   11:30   1.00   93.0    14    7.3   126    15.1   871.2    0.00 
 205   11:40   1.00   93.9    14    3.7   179    10.3   871.2    0.00 
 205   11:50   1.00   93.7    14    4.2   204    10.3   871.2    0.00 
 205   12:00   0.99   92.4    17    8.6   129    17.3   871.1    0.00 
 205   12:10   0.98   92.8    17    7.7   197    14.3   871.0    0.00 
 205   12:20   0.98   93.1    18    6.1   108    16.7   870.9    0.00 
 205   12:30   0.96   93.8    17    5.3   185    12.5   870.8    0.00 
 205   12:40   0.98   94.1    17    4.4    86    13.2   870.7    0.00 
 205   12:50   0.96   94.4    17    7.8   108    15.6   870.6    0.00 
 205   13:00   0.95   94.9    17    5.5   119    18.6   870.6    0.00 
 205   13:10   0.94   93.9    19    8.9   111    17.5   870.5    0.00 
 205   13:20   0.92   94.5    19    7.1   104    16.4   870.4    0.00 
 205   13:30   0.92   94.6    18    4.7   148    12.5   870.3    0.00 
 205   13:40   0.90   95.9    17    4.8   198    12.7   870.2    0.00 
 205   13:50   0.88   95.6    19    5.5   172    13.2   870.1    0.00 
 205   14:00   0.86   95.9    19    5.1   166    13.3   870.0    0.00 
 205   14:10   0.84   95.3    19    5.9   212    15.1   869.9    0.00 
 205   14:20   0.81   94.7    18    5.6   146    15.7   869.8    0.00 
 205   14:30   0.79   95.7    18    4.5   147    16.1   869.8    0.00 
 205   14:40   0.77   95.7    18    4.8   234    10.8   869.6    0.00 
 205   14:50   0.74   95.5    19    4.5   215    15.7   869.6    0.00 
 205   15:00   0.71   95.8    20    5.2   232    10.5   869.5    0.00 
 205   15:10   0.68   95.8    19    6.6   239    16.6   869.4    0.00 
 205   15:20   0.65   95.6    19    5.3   196    13.6   869.2    0.00 
 205   15:30   0.62   95.4    19    3.7   195    10.8   869.2    0.00 
 205   15:40   0.59   96.1    19    3.1   150    14.5   869.2    0.00 
 205   15:50   0.55   96.6    18    3.7   232    10.0   869.1    0.00 
 205   16:00   0.53   95.8    19    4.8   214    11.5   869.0    0.00 
 205   16:10   0.49   96.3    17    6.2   158    17.8   868.9    0.00 
 205   16:20   0.45   96.1    17    4.9   161    12.5   868.8    0.00 
 205   16:30   0.42   96.2    17    4.7   195    10.2   868.6    0.00 
 205   16:40   0.39   96.0    16    5.3   209    14.0   868.5    0.00 
 205   16:50   0.35   96.1    17    3.7    79    12.3   868.3    0.00 
 205   17:00   0.32   96.4    16    4.2   224    13.0   868.2    0.00 
 205   17:10   0.28   95.7    17    5.2   119    13.0   868.2    0.00 
 205   17:20   0.23   95.5    17    5.8   184    12.6   868.1    0.00 
 205   17:30   0.20   95.4    16    4.8   141    11.8   868.1    0.00 
 205   17:40   0.17   94.8    17    5.7   104    14.8   868.1    0.00 
 205   17:50   0.12   93.7    17    7.9   110    14.1   868.1    0.00 
 205   18:00   0.03   93.1    18    4.0   173    11.0   868.1    0.00 
 205   18:10   0.03   92.6    18    2.2   192    11.0   868.2    0.00 
 205   18:20   0.01   92.1    18    4.6   132    10.3   868.1    0.00 
 205   18:30   0.01   91.7    19    6.7   104    14.6   868.1    0.00 
 205   18:40   0.01   91.4    19    6.7   119    12.9   868.2    0.00 
 205   18:50   0.00   90.4    19    6.0   101    10.9   868.3    0.00 
 205   19:00   0.00   90.5    19    2.6    80     8.3   868.3    0.00 
 205   19:10   0.00   90.5    19    2.8    92     7.4   868.4    0.00 
 205   19:20   0.00   90.3    20    3.2   100     9.9   868.4    0.00 
 205   19:30   0.00   89.7    20    2.5    80     5.2   868.4    0.00 
 205   19:40   0.00   89.1    20    2.1    50     5.0   868.5    0.00 
 205   19:50   0.00   89.4    19    3.5   237     6.7   868.6    0.00 
 205   20:00   0.00   88.8    20    2.5   266     5.8   868.7    0.00 
 205   20:10   0.00   89.0    20    3.9   257    10.2   868.8    0.00 
 205   20:20   0.00   88.9    20    4.8   244     9.9   869.0    0.00 
 205   20:30   0.00   88.8    20    5.0   251    11.0   869.2    0.00 
 205   20:40   0.00   88.4    21    5.9   241    10.4   869.3    0.00 
 205   20:50   0.00   87.5    22    2.8   262     6.9   869.3    0.00 
 205   21:00   0.00   86.6    23    2.0   270     5.9   869.4    0.00 
 205   21:10   0.00   86.7    23    1.7   257     6.0   869.4    0.00 
 205   21:20   0.00   86.5    24    3.2   253     7.3   869.4    0.00 
 205   21:30   0.00   85.7    25    2.3   282     5.6   869.4    0.00 
 205   21:40   0.00   84.7    25    3.8   290     7.5   869.4    0.00 
 205   21:50   0.00   85.4    24    4.6   300     7.0   869.4    0.00 
 205   22:00   0.00   85.5    23    3.4   291     6.3   869.3    0.00 
 205   22:10   0.00   86.1    22    3.0   266     5.5   869.3    0.00 
 205   22:20   0.00   85.9    22    4.0   268     6.8   869.4    0.00 
 205   22:30   0.00   85.2    23    4.7   280     7.7   869.5    0.00 
 205   22:40   0.00   85.3    22    5.2   278     7.5   869.6    0.00 
 205   22:50   0.00   85.1    22    3.3   274     5.0   869.7    0.00 
 205   23:00   0.00   85.9    21    1.8   200     4.2   869.7    0.00 
 205   23:10   0.00   85.7    22    2.0   299     4.7   869.7    0.00 
 205   23:20   0.00   84.9    23    0.7   226     3.9   869.6    0.00 
 205   23:30   0.00   83.3    24    0.7   258     3.0   869.6    0.00 
 205   23:40   0.00   81.9    25    1.7   254     3.4   869.6    0.00 
 205   23:50   0.00   80.6    26    2.5   298     4.1   869.4    0.00 
 206    0:00   0.00   82.0    26    2.9   191     5.0   869.5    0.00 
 206    0:10   0.00   83.0    26    1.7    67     3.0   869.6    0.00 
 206    0:20   0.00   81.5    27    1.3   281     2.8   869.5    0.00 
 206    0:30   0.00   80.5    28    0.8   272     2.3   869.5    0.00 
 206    0:40   0.00   79.2    30    0.5   235     1.8   869.4    0.00 
 206    0:50   0.00   80.4    28    1.1   295     2.8   869.3    0.00 
 206    1:00   0.00   79.8    29    3.1   287     4.0   869.2    0.00 
 206    1:10   0.00   79.6    30    3.4   287     4.2   869.1    0.00 
 206    1:20   0.00   79.1    30    3.4   279     3.9   869.0    0.00 
 206    1:30   0.00   79.4    28    1.7   270     3.6   868.9    0.00 
 206    1:40   0.00   79.3    29    0.4   164     2.3   868.8    0.00 
 206    1:50   0.00   77.5    30    1.9   292     3.4   868.8    0.00 
 206    2:00   0.00   78.7    30    1.7   330     2.9   868.7    0.00 
 206    2:10   0.00   78.2    30    2.5   281     3.0   868.7    0.00 
 206    2:20   0.00   77.1    32    1.9   267     3.1   868.6    0.00 
 206    2:30   0.00   78.4    30    0.4   253     1.5   868.7    0.00 
 206    2:40   0.00   76.7    32    0.8    44     1.5   868.7    0.00 
 206    2:50   0.00   76.6    32    0.5   292     1.8   868.8    0.00 
 206    3:00   0.00   74.2    35    0.5   314     2.3   868.8    0.00 
 206    3:10   0.00   76.5    33    1.7   280     2.8   868.7    0.00 
 206    3:20   0.00   76.9    32    1.7   300     2.7   868.7    0.00 
 206    3:30   0.00   75.4    33    0.4   294     1.4   868.8    0.00 
 206    3:40   0.00   75.8    32    1.2   312     2.6   868.8    0.00 
 206    3:50   0.00   75.4    33    2.3   287     3.4   868.9    0.00 
 206    4:00   0.00   74.1    34    2.7   286     3.6   869.0    0.00 
 206    4:10   0.00   76.0    32    3.0   296     3.9   869.1    0.00 
 206    4:20   0.00   76.6    31    3.0   278     3.9   869.2    0.00 
 206    4:30   0.00   74.9    32    3.3   275     3.7   869.2    0.00 
 206    4:40   0.00   76.9    30    3.1   273     4.3   869.3    0.00 
 206    4:50   0.00   76.1    31    3.6   288     4.3   869.5    0.00 
 206    5:00   0.00   76.4    31    3.0   286     4.0   869.6    0.00 
 206    5:10   0.01   75.1    33    3.6   289     4.2   869.7    0.00 
 206    5:20   0.02   75.3    32    1.3   285     2.9   869.8    0.00 
 206    5:30   0.03   76.2    32    0.4   264     1.5   869.9    0.00 
 206    5:40   0.03   75.3    32    2.2   282     3.8   869.9    0.00 
 206    5:50   0.08   77.0    31    2.7   273     3.6   870.0    0.00 
 206    6:00   0.13   80.3    28    1.6   275     2.8   870.1    0.00 
 206    6:10   0.16   82.0    28    2.2   293     3.6   870.2    0.00 
 206    6:20   0.19   84.7    26    2.1   272     3.7   870.3    0.00 
 206    6:30   0.22   86.9    24    1.7   304     3.2   870.4    0.00 
 206    6:40   0.26   88.2    22    1.3   280     2.8   870.5    0.00 
 206    6:50   0.29   89.6    18    2.3   234     5.3   870.7    0.00 
 206    7:00   0.34   90.2    18    2.3   206     5.1   870.8    0.00 
 206    7:10   0.37   89.3    21    2.1   201     6.3   870.9    0.00 
 206    7:20   0.40   89.1    23    3.0   116     7.9   870.9    0.00 
 206    7:30   0.43   86.8    27    4.7   129     9.3   871.0    0.00 
 206    7:40   0.46   86.9    27    3.9   109     9.1   871.1    0.00 
 206    7:50   0.50   85.9    28    9.2   126    12.9   871.2    0.00 
 206    8:00   0.53   85.2    30    8.6   123    12.9   871.3    0.00 
 206    8:10   0.56   84.6    31   10.2   120    14.3   871.4    0.00 
 206    8:20   0.59   84.4    31    9.0   126    14.0   871.5    0.00 
 206    8:30   0.63   84.6    32    7.4   110    16.1   871.5    0.00 
 206    8:40   0.66   84.0    33    7.4   118    16.6   871.7    0.00 
 206    8:50   0.69   83.9    33    6.2   109    12.8   871.8    0.00 
 206    9:00   0.71   82.8    35    7.4   104    17.4   871.9    0.00 
 206    9:10   0.74   83.5    34    7.4   112    16.0   872.1    0.00 
 206    9:20   0.77   83.8    35   10.1   116    18.2   872.2    0.00 
 206    9:30   0.79   83.9    35   10.2   117    20.5   872.2    0.00 
 206    9:40   0.79   83.4    36   10.3   118    17.1   872.2    0.00 
 206    9:50   0.82   84.3    35   10.7   123    20.5   872.2    0.00 
 206   10:00   0.84   85.2    34    8.6   120    18.6   872.2    0.00 
 206   10:10   0.86   85.0    34    9.1   120    15.7   872.2    0.00 
 206   10:20   0.87   85.9    33    7.7   116    15.3   872.2    0.00 
 206   10:30   0.86   86.1    32    6.5   166    16.4   872.2    0.00 
 206   10:40   0.89   86.6    32    3.5   233    12.0   872.2    0.00 
 206   10:50   0.90   88.1    30    5.0   137    15.1   872.2    0.00 
 206   11:00   0.92   87.7    30    4.7   115    13.9   872.1    0.00 

Return to Sweeney Granite Mountains graphs page.


Western Regional Climate Center,wrcc@dri.edu